Observation data for Sundown on 05/25/2020      Previous  Date  Next       Current Mesonet Observations  Soil Data  Daily Summary Page  Observations in Plain Language
KSDS 250500Z 11011KT 17/09 A298 RMK A01 T01700091  RH  062%=      5-min Rain = 0
KSDS 250505Z 12013KT 17/09 A298 RMK A01 T01730088  RH  059%=      5-min Rain = 0
KSDS 250510Z 12013KT 17/09 A2981 RMK A01 T01730086  RH  058%=      5-min Rain = 0
KSDS 250515Z 12013KT 17/09 A2981 RMK A01 T01740085  RH  057%=      5-min Rain = 0
KSDS 250520Z 12014G20KT 18/08 A2981 RMK A01 T01760084  RH  057%=      5-min Rain = 0
KSDS 250525Z 12015G20KT 18/08 A2981 RMK A01 T01770083  RH  056%=      5-min Rain = 0
KSDS 250530Z 12016G22KT 18/08 A2981 RMK A01 T01790082  RH  055%=      5-min Rain = 0
KSDS 250535Z 12016G21KT 18/08 A298 RMK A01 T01810081  RH  053%=      5-min Rain = 0
KSDS 250540Z 12015G21KT 18/08 A298 RMK A01 T01810080  RH  053%=      5-min Rain = 0
KSDS 250545Z 12015G21KT 18/08 A298 RMK A01 T01820080  RH  053%=      5-min Rain = 0
KSDS 250550Z 12016G22KT 18/08 A2981 RMK A01 T01820081  RH  053%=      5-min Rain = 0
KSDS 250555Z 12016G22KT 18/08 A2981 RMK A01 T01820083  RH  054%=      5-min Rain = 0
KSDS 250600Z 12017G23KT 18/08 A2981 RMK A01 T01820084  RH  054%=      5-min Rain = 0
KSDS 250605Z 12018G27KT 18/08 A2981 RMK A01 T01810084  RH  054%=      5-min Rain = 0
KSDS 250610Z 13020G26KT 18/08 A2982 RMK A01 T01820084  RH  054%=      5-min Rain = 0
KSDS 250615Z 12020G25KT 18/08 A2982 RMK A01 T01800084  RH  055%=      5-min Rain = 0
KSDS 250620Z 13016G24KT 18/09 A2982 RMK A01 T01780085  RH  056%=      5-min Rain = 0
KSDS 250625Z 13019G24KT 18/09 A2982 RMK A01 T01770085  RH  056%=      5-min Rain = 0
KSDS 250630Z 12018G25KT 18/08 A2982 RMK A01 T01760084  RH  057%=      5-min Rain = 0
KSDS 250635Z 12017G22KT 18/08 A2982 RMK A01 T01750084  RH  057%=      5-min Rain = 0
KSDS 250640Z 12016G25KT 17/08 A2983 RMK A01 T01740084  RH  057%=      5-min Rain = 0
KSDS 250645Z 12017G25KT 17/08 A2983 RMK A01 T01740083  RH  057%=      5-min Rain = 0
KSDS 250650Z 12017G24KT 17/08 A2984 RMK A01 T01730084  RH  057%=      5-min Rain = 0
KSDS 250655Z 12018G24KT 17/09 A2984 RMK A01 T01730085  RH  058%=      5-min Rain = 0
KSDS 250700Z 12016G25KT 17/09 A2984 RMK A01 T01720086  RH  059%=      5-min Rain = 0
KSDS 250705Z 12017G23KT 17/09 A2984 RMK A01 T01710088  RH  060%=      5-min Rain = 0
KSDS 250710Z 13016G21KT 17/09 A2984 RMK A01 T01700089  RH  061%=      5-min Rain = 0
KSDS 250715Z 12017G24KT 17/09 A2984 RMK A01 T01700090  RH  061%=      5-min Rain = 0
KSDS 250720Z 12014G19KT 17/09 A2984 RMK A01 T01680091  RH  062%=      5-min Rain = 0
KSDS 250725Z 12015KT 17/09 A2984 RMK A01 T01670091  RH  063%=      5-min Rain = 0
KSDS 250730Z 13013G18KT 17/09 A2985 RMK A01 T01660092  RH  064%=      5-min Rain = 0
KSDS 250735Z 13013KT 17/09 A2986 RMK A01 T01660092  RH  064%=      5-min Rain = 0
KSDS 250740Z 12012G17KT 17/09 A2987 RMK A01 T01660093  RH  064%=      5-min Rain = 0
KSDS 250745Z 11013G19KT 17/09 A2988 RMK A01 T01650094  RH  065%=      5-min Rain = 0
KSDS 250750Z 11014G19KT 16/10 A2988 RMK A01 T01640095  RH  066%=      5-min Rain = 0
KSDS 250755Z 12016G21KT 16/10 A2988 RMK A01 T01620096  RH  067%=      5-min Rain = 0
KSDS 250800Z 11016G21KT 16/10 A2987 RMK A01 T01600097  RH  068%=      5-min Rain = 0
KSDS 250805Z 11017G23KT 16/10 A2987 RMK A01 T01590099  RH  069%=      5-min Rain = 0
KSDS 250810Z 11016G24KT 16/10 A2987 RMK A01 T01570100  RH  071%=      5-min Rain = 0
KSDS 250815Z 11019G25KT 16/10 A2987 RMK A01 T01560101  RH  072%=      5-min Rain = 0
KSDS 250820Z 11019G24KT 15/10 A2987 RMK A01 T01540103  RH  074%=      5-min Rain = 0
KSDS 250825Z 11017G24KT 15/11 A2987 RMK A01 T01520105  RH  076%=      5-min Rain = 0
KSDS 250830Z 10018G23KT 15/11 A2988 RMK A01 T01500107  RH  078%=      5-min Rain = 0
KSDS 250835Z 11016G22KT 15/11 A2988 RMK A01 T01500108  RH  078%=      5-min Rain = 0
KSDS 250840Z 11017G25KT 15/11 A2987 RMK A01 T01510108  RH  078%=      5-min Rain = 0
KSDS 250845Z 11019G25KT 15/11 A2987 RMK A01 T01500109  RH  079%=      5-min Rain = 0
KSDS 250850Z 11015G20KT 15/11 A2988 RMK A01 T01490110  RH  080%=      5-min Rain = 0
KSDS 250855Z 11014G22KT 15/11 A2988 RMK A01 T01480110  RH  081%=      5-min Rain = 0
KSDS 250900Z 10015KT 15/11 A2988 RMK A01 T01490110  RH  081%=      5-min Rain = 0
KSDS 250905Z 10014G21KT 15/11 A2988 RMK A01 T01500111  RH  080%=      5-min Rain = 0
KSDS 250910Z 09015G22KT 15/11 A2989 RMK A01 T01510112  RH  081%=      5-min Rain = 0
KSDS 250915Z 08012G17KT 15/11 A299 RMK A01 T01510113  RH  081%=      5-min Rain = 0
KSDS 250920Z 08013KT 15/11 A299 RMK A01 T01500113  RH  081%=      5-min Rain = 0
KSDS 250925Z 08012KT 15/11 A299 RMK A01 T01490113  RH  082%=      5-min Rain = 0
KSDS 250930Z 09011KT 15/11 A2989 RMK A01 T01480113  RH  082%=      5-min Rain = 0
KSDS 250935Z 07009KT 15/11 A299 RMK A01 T01480114  RH  083%=      5-min Rain = 0
KSDS 250940Z 06010KT 15/11 A2991 RMK A01 T01480114  RH  083%=      5-min Rain = 0
KSDS 250945Z 08009KT 15/11 A299 RMK A01 T01460113  RH  083%=      5-min Rain = 0
KSDS 250950Z 09010G15KT 14/11 A2989 RMK A01 T01440112  RH  084%=      5-min Rain = 0
KSDS 250955Z 08009KT 14/11 A299 RMK A01 T01420113  RH  085%=      5-min Rain = 0
KSDS 251000Z 07008KT 14/11 A299 RMK A01 T01430113  RH  085%=      5-min Rain = 0
KSDS 251005Z 08008KT 14/11 A299 RMK A01 T01410113  RH  086%=      5-min Rain = 0
KSDS 251010Z 07007KT 14/11 A299 RMK A01 T01390112  RH  087%=      5-min Rain = 0
KSDS 251015Z 07006KT 14/11 A299 RMK A01 T01360111  RH  088%=      5-min Rain = 0
KSDS 251020Z 07006KT 13/11 A2989 RMK A01 T01340110  RH  089%=      5-min Rain = 0
KSDS 251025Z 06007KT 13/11 A2989 RMK A01 T01320109  RH  090%=      5-min Rain = 0
KSDS 251030Z 05007KT 13/11 A2989 RMK A01 T01300109  RH  090%=      5-min Rain = 0
KSDS 251035Z 06007KT 13/11 A2989 RMK A01 T01290109  RH  091%=      5-min Rain = 0
KSDS 251040Z 05007KT 13/11 A299 RMK A01 T01290110  RH  091%=      5-min Rain = 0
KSDS 251045Z 04006KT 13/11 A299 RMK A01 T01280109  RH  091%=      5-min Rain = 0
KSDS 251050Z 04007KT 13/11 A299 RMK A01 T01270109  RH  092%=      5-min Rain = 0
KSDS 251055Z 05006KT 13/11 A2989 RMK A01 T01290111  RH  092%=      5-min Rain = 0
KSDS 251100Z 04007KT 13/11 A2989 RMK A01 T01300112  RH  092%=      5-min Rain = 0
KSDS 251105Z 04008KT 13/11 A2989 RMK A01 T01320114  RH  092%=      5-min Rain = 0
KSDS 251110Z 06006KT 13/11 A2988 RMK A01 T01320113  RH  091%=      5-min Rain = 0
KSDS 251115Z 05006KT 13/11 A2989 RMK A01 T01320112  RH  091%=      5-min Rain = 0
KSDS 251120Z 04005KT 13/11 A2989 RMK A01 T01310112  RH  091%=      5-min Rain = 0
KSDS 251125Z 03005KT 13/11 A299 RMK A01 T01290111  RH  091%=      5-min Rain = 0
KSDS 251130Z 03006KT 13/11 A299 RMK A01 T01300111  RH  092%=      5-min Rain = 0
KSDS 251135Z 03005KT 13/11 A299 RMK A01 T01310113  RH  092%=      5-min Rain = 0
KSDS 251140Z 03006KT 13/11 A2991 RMK A01 T01290110  RH  092%=      5-min Rain = 0
KSDS 251145Z 02005KT 13/11 A2991 RMK A01 T01270109  RH  092%=      5-min Rain = 0
KSDS 251150Z 02006KT 13/11 A2991 RMK A01 T01260108  RH  092%=      5-min Rain = 0
KSDS 251155Z 01006KT 12/11 A2991 RMK A01 T01240107  RH  092%=      5-min Rain = 0
KSDS 251200Z 01007KT 12/11 A2991 RMK A01 T01240107  RH  093%=      5-min Rain = 0
KSDS 251205Z 01008KT 13/11 A2992 RMK A01 T01260110  RH  093%=      5-min Rain = 0
KSDS 251210Z 00007KT 13/11 A2992 RMK A01 T01280112  RH  093%=      5-min Rain = 0
KSDS 251215Z 36008KT 13/11 A2992 RMK A01 T01290113  RH  093%=      5-min Rain = 0
KSDS 251220Z 36007KT 13/12 A2993 RMK A01 T01310115  RH  093%=      5-min Rain = 0
KSDS 251225Z 35008G13KT 13/12 A2993 RMK A01 T01330116  RH  092%=      5-min Rain = 0
KSDS 251230Z 35008KT 14/12 A2993 RMK A01 T01360116  RH  091%=      5-min Rain = 0
KSDS 251235Z 35009KT 14/12 A2993 RMK A01 T01380116  RH  090%=      5-min Rain = 0
KSDS 251240Z 36009KT 14/12 A2993 RMK A01 T01390116  RH  089%=      5-min Rain = 0
KSDS 251245Z 00010KT 14/12 A2993 RMK A01 T01410115  RH  088%=      5-min Rain = 0
KSDS 251250Z 36011KT 14/12 A2994 RMK A01 T01420115  RH  087%=      5-min Rain = 0
KSDS 251255Z 36012KT 14/11 A2994 RMK A01 T01420113  RH  086%=      5-min Rain = 0
KSDS 251300Z 36014KT 14/11 A2994 RMK A01 T01430111  RH  084%=      5-min Rain = 0
KSDS 251305Z 00013G19KT 14/11 A2994 RMK A01 T01440107  RH  081%=      5-min Rain = 0
KSDS 251310Z 36015G20KT 14/09 A2994 RMK A01 T01420094  RH  075%=      5-min Rain = 0
KSDS 251315Z 36013G19KT 14/09 A2994 RMK A01 T01410087  RH  072%=      5-min Rain = 0
KSDS 251320Z 01014G21KT 14/08 A2995 RMK A01 T01410083  RH  070%=      5-min Rain = 0
KSDS 251325Z 01015G20KT 14/08 A2995 RMK A01 T01400077  RH  068%=      5-min Rain = 0
KSDS 251330Z 01013KT 14/08 A2995 RMK A01 T01410076  RH  067%=      5-min Rain = 0
KSDS 251335Z 01016G21KT 14/07 A2995 RMK A01 T01410074  RH  066%=      5-min Rain = 0
KSDS 251340Z 01014G19KT 14/07 A2995 RMK A01 T01440074  RH  065%=      5-min Rain = 0
KSDS 251345Z 01019G25KT 14/07 A2995 RMK A01 T01430071  RH  063%=      5-min Rain = 0
KSDS 251350Z 01018G23KT 14/07 A2995 RMK A01 T01430070  RH  063%=      5-min Rain = 0
KSDS 251355Z 01018KT 14/07 A2995 RMK A01 T01430070  RH  063%=      5-min Rain = 0
KSDS 251400Z 01016KT 14/07 A2995 RMK A01 T01440070  RH  063%=      5-min Rain = 0
KSDS 251405Z 01018KT 15/07 A2995 RMK A01 T01450070  RH  062%=      5-min Rain = 0
KSDS 251410Z 01015G22KT 15/07 A2995 RMK A01 T01470070  RH  062%=      5-min Rain = 0
KSDS 251415Z 01014G19KT 15/07 A2995 RMK A01 T01510071  RH  060%=      5-min Rain = 0
KSDS 251420Z 02012G19KT 15/07 A2996 RMK A01 T01540072  RH  060%=      5-min Rain = 0
KSDS 251425Z 02014G19KT 15/07 A2996 RMK A01 T01520071  RH  060%=      5-min Rain = 0
KSDS 251430Z 02014G19KT 15/07 A2996 RMK A01 T01510072  RH  060%=      5-min Rain = 0
KSDS 251435Z 01017KT 15/07 A2996 RMK A01 T01520072  RH  060%=      5-min Rain = 0
KSDS 251440Z 01016G21KT 15/07 A2996 RMK A01 T01540073  RH  060%=      5-min Rain = 0
KSDS 251445Z 01018G24KT 16/07 A2996 RMK A01 T01570074  RH  060%=      5-min Rain = 0
KSDS 251450Z 01018G23KT 16/08 A2996 RMK A01 T01560075  RH  060%=      5-min Rain = 0
KSDS 251455Z 01018G23KT 16/08 A2996 RMK A01 T01570076  RH  060%=      5-min Rain = 0
KSDS 251500Z 01016G21KT 16/08 A2996 RMK A01 T01590077  RH  060%=      5-min Rain = 0
KSDS 251505Z 02016G22KT 16/08 A2996 RMK A01 T01580077  RH  060%=      5-min Rain = 0
KSDS 251510Z 01018KT 16/08 A2996 RMK A01 T01590078  RH  060%=      5-min Rain = 0
KSDS 251515Z 01018G23KT 16/08 A2996 RMK A01 T01620079  RH  060%=      5-min Rain = 0
KSDS 251520Z 02017G22KT 16/08 A2996 RMK A01 T01640080  RH  059%=      5-min Rain = 0
KSDS 251525Z 01017G24KT 17/08 A2996 RMK A01 T01650080  RH  059%=      5-min Rain = 0
KSDS 251530Z 02018G24KT 17/08 A2996 RMK A01 T01680081  RH  058%=      5-min Rain = 0
KSDS 251535Z 02019KT 17/08 A2996 RMK A01 T01680080  RH  058%=      5-min Rain = 0
KSDS 251540Z 02017G22KT 17/08 A2996 RMK A01 T01700081  RH  057%=      5-min Rain = 0
KSDS 251545Z 01016G22KT 18/08 A2996 RMK A01 T01750082  RH  056%=      5-min Rain = 0
KSDS 251550Z 03017G23KT 17/08 A2996 RMK A01 T01730080  RH  056%=      5-min Rain = 0
KSDS 251555Z 03016G22KT 17/08 A2997 RMK A01 T01730080  RH  056%=      5-min Rain = 0
KSDS 251600Z 02017G23KT 17/08 A2997 RMK A01 T01740080  RH  056%=      5-min Rain = 0
KSDS 251605Z 03018G23KT 18/08 A2997 RMK A01 T01750080  RH  055%=      5-min Rain = 0
KSDS 251610Z 03017G23KT 17/08 A2997 RMK A01 T01740080  RH  055%=      5-min Rain = 0
KSDS 251615Z 03017G24KT 18/08 A2997 RMK A01 T01750080  RH  055%=      5-min Rain = 0
KSDS 251620Z 02017G22KT 18/08 A2997 RMK A01 T01750080  RH  055%=      5-min Rain = 0
KSDS 251625Z 03017G23KT 18/08 A2997 RMK A01 T01760080  RH  055%=      5-min Rain = 0
KSDS 251630Z 03017G24KT 17/08 A2997 RMK A01 T01740080  RH  055%=      5-min Rain = 0
KSDS 251635Z 03015G23KT 18/08 A2997 RMK A01 T01750081  RH  056%=      5-min Rain = 0
KSDS 251640Z 02017G22KT 17/08 A2997 RMK A01 T01740080  RH  055%=      5-min Rain = 0
KSDS 251645Z 04016G23KT 17/08 A2998 RMK A01 T01740080  RH  056%=      5-min Rain = 0
KSDS 251650Z 04018G24KT 18/08 A2998 RMK A01 T01750081  RH  055%=      5-min Rain = 0
KSDS 251655Z 03015G23KT 17/08 A2998 RMK A01 T01740081  RH  056%=      5-min Rain = 0
KSDS 251700Z 03016G22KT 18/08 A2998 RMK A01 T01750081  RH  056%=      5-min Rain = 0
KSDS 251705Z 02015G21KT 18/08 A2998 RMK A01 T01750081  RH  056%=      5-min Rain = 0
KSDS 251710Z 03015G21KT 18/08 A2998 RMK A01 T01760081  RH  055%=      5-min Rain = 0
KSDS 251715Z 03017G23KT 17/08 A2999 RMK A01 T01740080  RH  055%=      5-min Rain = 0
KSDS 251720Z 03015G20KT 18/08 A2999 RMK A01 T01760080  RH  055%=      5-min Rain = 0
KSDS 251725Z 03017G22KT 18/08 A2999 RMK A01 T01750079  RH  055%=      5-min Rain = 0
KSDS 251730Z 03015KT 18/08 A2999 RMK A01 T01760079  RH  054%=      5-min Rain = 0
KSDS 251735Z 04016G23KT 18/08 A2999 RMK A01 T01770079  RH  054%=      5-min Rain = 0
KSDS 251740Z 03017G22KT 18/08 A2999 RMK A01 T01770078  RH  054%=      5-min Rain = 0
KSDS 251745Z 03015G21KT 18/08 A2999 RMK A01 T01770078  RH  054%=      5-min Rain = 0
KSDS 251750Z 02015G21KT 18/08 A2999 RMK A01 T01790078  RH  053%=      5-min Rain = 0
KSDS 251755Z 03016G21KT 18/08 A2999 RMK A01 T01780077  RH  053%=      5-min Rain = 0
KSDS 251800Z 02017G22KT 18/08 A2999 RMK A01 T01760077  RH  053%=      5-min Rain = 0
KSDS 251805Z 02016G21KT 18/08 A30 RMK A01 T01760076  RH  053%=      5-min Rain = 0
KSDS 251810Z 02016G22KT 18/08 A30 RMK A01 T01750076  RH  053%=      5-min Rain = 0
KSDS 251815Z 02016G21KT 18/08 A30 RMK A01 T01750076  RH  054%=      5-min Rain = 0
KSDS 251820Z 01016G22KT 18/08 A30 RMK A01 T01750075  RH  054%=      5-min Rain = 0
KSDS 251825Z 02015KT 18/08 A30 RMK A01 T01750075  RH  053%=      5-min Rain = 0
KSDS 251830Z 01015G22KT 18/08 A30 RMK A01 T01750075  RH  053%=      5-min Rain = 0
KSDS 251835Z 01015G20KT 18/08 A30 RMK A01 T01750075  RH  053%=      5-min Rain = 0
KSDS 251840Z 01015KT 18/07 A30 RMK A01 T01750074  RH  053%=      5-min Rain = 0
KSDS 251845Z 01014G19KT 17/08 A3001 RMK A01 T01740075  RH  054%=      5-min Rain = 0
KSDS 251850Z 01014KT 17/08 A3001 RMK A01 T01730075  RH  054%=      5-min Rain = 0
KSDS 251855Z 01014KT 17/07 A3001 RMK A01 T01720074  RH  054%=      5-min Rain = 0
KSDS 251900Z 02012G19KT 17/08 A3001 RMK A01 T01740075  RH  054%=      5-min Rain = 0
KSDS 251905Z 03014G20KT 18/08 A30 RMK A01 T01760075  RH  053%=      5-min Rain = 0
KSDS 251910Z 02012G17KT 18/08 A30 RMK A01 T01780076  RH  052%=      5-min Rain = 0
KSDS 251915Z 01015KT 18/08 A30 RMK A01 T01790075  RH  052%=      5-min Rain = 0
KSDS 251920Z 03014G20KT 18/08 A30 RMK A01 T01820076  RH  051%=      5-min Rain = 0
KSDS 251925Z 03015G20KT 19/08 A30 RMK A01 T01900077  RH  049%=      5-min Rain = 0
KSDS 251930Z 03014G20KT 20/08 A30 RMK A01 T01980079  RH  048%=      5-min Rain = 0
KSDS 251935Z 03013KT 21/08 A30 RMK A01 T02070080  RH  045%=      5-min Rain = 0
KSDS 251940Z 02015G22KT 21/08 A30 RMK A01 T02080079  RH  045%=      5-min Rain = 0
KSDS 251945Z 03014G21KT 21/08 A2999 RMK A01 T02090079  RH  044%=      5-min Rain = 0
KSDS 251950Z 02016G24KT 21/08 A2998 RMK A01 T02130077  RH  043%=      5-min Rain = 0
KSDS 251955Z 03014G19KT 22/08 A2998 RMK A01 T02160078  RH  042%=      5-min Rain = 0
KSDS 252000Z 03014G20KT 22/08 A2998 RMK A01 T02160078  RH  042%=      5-min Rain = 0
KSDS 252005Z 02016G22KT 22/08 A2998 RMK A01 T02160077  RH  042%=      5-min Rain = 0
KSDS 252010Z 02015G23KT 22/08 A2998 RMK A01 T02220078  RH  041%=      5-min Rain = 0
KSDS 252015Z 02017G25KT 22/08 A2998 RMK A01 T02210076  RH  040%=      5-min Rain = 0
KSDS 252020Z 03015G22KT 22/08 A2998 RMK A01 T02180076  RH  041%=      5-min Rain = 0
KSDS 252025Z 03017G22KT 22/08 A2997 RMK A01 T02220075  RH  040%=      5-min Rain = 0
KSDS 252030Z 01016G28KT 22/08 A2997 RMK A01 T02200075  RH  040%=      5-min Rain = 0
KSDS 252035Z 02018G25KT 21/07 A2997 RMK A01 T02120073  RH  042%=      5-min Rain = 0
KSDS 252040Z 02015G21KT 21/07 A2997 RMK A01 T02090073  RH  042%=      5-min Rain = 0
KSDS 252045Z 01016G23KT 21/07 A2997 RMK A01 T02060073  RH  043%=      5-min Rain = 0
KSDS 252050Z 01016G21KT 21/07 A2997 RMK A01 T02050074  RH  044%=      5-min Rain = 0
KSDS 252055Z 00016G22KT 20/08 A2997 RMK A01 T02030077  RH  045%=      5-min Rain = 0
KSDS 252100Z 01017G23KT 20/08 A2997 RMK A01 T02010077  RH  046%=      5-min Rain = 0
KSDS 252105Z 01018G26KT 20/08 A2997 RMK A01 T02000077  RH  046%=      5-min Rain = 0
KSDS 252110Z 00019G26KT 20/08 A2997 RMK A01 T01990078  RH  047%=      5-min Rain = 0
KSDS 252115Z 00018G25KT 20/08 A2997 RMK A01 T02000078  RH  047%=      5-min Rain = 0
KSDS 252120Z 00019G25KT 20/08 A2997 RMK A01 T01990078  RH  047%=      5-min Rain = 0
KSDS 252125Z 01019G27KT 20/08 A2997 RMK A01 T01970078  RH  048%=      5-min Rain = 0
KSDS 252130Z 01019G24KT 20/08 A2997 RMK A01 T01960079  RH  048%=      5-min Rain = 0
KSDS 252135Z 01018G24KT 20/08 A2997 RMK A01 T01960079  RH  048%=      5-min Rain = 0
KSDS 252140Z 01017G23KT 19/08 A2997 RMK A01 T01940079  RH  049%=      5-min Rain = 0
KSDS 252145Z 01016G22KT 20/08 A2997 RMK A01 T01950079  RH  048%=      5-min Rain = 0
KSDS 252150Z 02016G22KT 19/08 A2997 RMK A01 T01940080  RH  049%=      5-min Rain = 0
KSDS 252155Z 01016KT 19/08 A2997 RMK A01 T01930081  RH  050%=      5-min Rain = 0
KSDS 252200Z 02017G23KT 19/08 A2997 RMK A01 T01940081  RH  049%=      5-min Rain = 0
KSDS 252205Z 02014G19KT 20/08 A2997 RMK A01 T01950082  RH  049%=      5-min Rain = 0
KSDS 252210Z 03014G20KT 20/08 A2997 RMK A01 T01960082  RH  049%=      5-min Rain = 0
KSDS 252215Z 04014G21KT 20/08 A2997 RMK A01 T01950082  RH  049%=      5-min Rain = 0
KSDS 252220Z 03015G20KT 19/08 A2997 RMK A01 T01940081  RH  049%=      5-min Rain = 0
KSDS 252225Z 02015G22KT 19/08 A2997 RMK A01 T01940082  RH  050%=      5-min Rain = 0
KSDS 252230Z 02016G21KT 19/08 A2997 RMK A01 T01930082  RH  050%=      5-min Rain = 0
KSDS 252235Z 03015G20KT 19/08 A2997 RMK A01 T01930081  RH  050%=      5-min Rain = 0
KSDS 252240Z 02014G21KT 20/08 A2997 RMK A01 T01950082  RH  049%=      5-min Rain = 0
KSDS 252245Z 03014KT 20/08 A2997 RMK A01 T01970083  RH  049%=      5-min Rain = 0
KSDS 252250Z 04012G19KT 20/08 A2998 RMK A01 T01980083  RH  049%=      5-min Rain = 0
KSDS 252255Z 02014G21KT 20/08 A2998 RMK A01 T01980084  RH  049%=      5-min Rain = 0
KSDS 252300Z 03013G20KT 20/08 A2998 RMK A01 T01960083  RH  049%=      5-min Rain = 0
KSDS 252305Z 03011KT 20/09 A2998 RMK A01 T01990085  RH  049%=      5-min Rain = 0
KSDS 252310Z 02012G17KT 20/09 A2998 RMK A01 T01980085  RH  050%=      5-min Rain = 0
KSDS 252315Z 01013KT 20/08 A2998 RMK A01 T01990084  RH  049%=      5-min Rain = 0
KSDS 252320Z 01014G19KT 20/08 A2999 RMK A01 T01980083  RH  049%=      5-min Rain = 0
KSDS 252325Z 00015G21KT 20/08 A2998 RMK A01 T02010084  RH  048%=      5-min Rain = 0
KSDS 252330Z 00014KT 20/09 A2999 RMK A01 T02020085  RH  048%=      5-min Rain = 0
KSDS 252335Z 00015G21KT 19/08 A2999 RMK A01 T01930084  RH  051%=      5-min Rain = 0
KSDS 252340Z 00011G17KT 19/08 A2999 RMK A01 T01900084  RH  052%=      5-min Rain = 0
KSDS 252345Z 01013G19KT 19/08 A2999 RMK A01 T01900084  RH  052%=      5-min Rain = 0
KSDS 252350Z 02013G18KT 19/08 A2999 RMK A01 T01890084  RH  052%=      5-min Rain = 0
KSDS 252355Z 02014KT 19/08 A2999 RMK A01 T01900084  RH  052%=      5-min Rain = 0
KSDS 260000Z 00014G20KT 19/08 A2999 RMK A01 T01890084  RH  052%=      5-min Rain = 0
KSDS 260005Z 01013G18KT 18/08 A30 RMK A01 T01840084  RH  053%=      5-min Rain = 0
KSDS 260010Z 02013G18KT 19/08 A30 RMK A01 T01850084  RH  053%=      5-min Rain = 0
KSDS 260015Z 02011KT 19/08 A30 RMK A01 T01880084  RH  052%=      5-min Rain = 0
KSDS 260020Z 01010G15KT 19/08 A30 RMK A01 T01880084  RH  052%=      5-min Rain = 0
KSDS 260025Z 01012KT 19/08 A30 RMK A01 T01910083  RH  051%=      5-min Rain = 0
KSDS 260030Z 01012KT 19/08 A30 RMK A01 T01910084  RH  051%=      5-min Rain = 0
KSDS 260035Z 01011KT 19/09 A30 RMK A01 T01910085  RH  052%=      5-min Rain = 0
KSDS 260040Z 01011KT 19/09 A30 RMK A01 T01900085  RH  052%=      5-min Rain = 0
KSDS 260045Z 01010KT 19/09 A30 RMK A01 T01890086  RH  053%=      5-min Rain = 0
KSDS 260050Z 00010KT 19/09 A30 RMK A01 T01880086  RH  053%=      5-min Rain = 0
KSDS 260055Z 02008KT 19/09 A30 RMK A01 T01870086  RH  053%=      5-min Rain = 0
KSDS 260100Z 01008KT 18/09 A3001 RMK A01 T01820086  RH  055%=      5-min Rain = 0
KSDS 260105Z 36009KT 18/09 A3001 RMK A01 T01790086  RH  056%=      5-min Rain = 0
KSDS 260110Z 00010KT 18/09 A3001 RMK A01 T01810086  RH  055%=      5-min Rain = 0
KSDS 260115Z 01010KT 18/09 A3001 RMK A01 T01790086  RH  056%=      5-min Rain = 0
KSDS 260120Z 35009KT 18/09 A3001 RMK A01 T01760087  RH  058%=      5-min Rain = 0
KSDS 260125Z 35008KT 18/09 A3002 RMK A01 T01750089  RH  059%=      5-min Rain = 0
KSDS 260130Z 35009KT 17/09 A3002 RMK A01 T01720090  RH  060%=      5-min Rain = 0
KSDS 260135Z 35010G15KT 17/09 A3002 RMK A01 T01690091  RH  062%=      5-min Rain = 0
KSDS 260140Z 35010KT 17/09 A3003 RMK A01 T01660092  RH  064%=      5-min Rain = 0
KSDS 260145Z 35010KT 16/09 A3003 RMK A01 T01630092  RH  065%=      5-min Rain = 0
KSDS 260150Z 35008KT 16/09 A3003 RMK A01 T01600092  RH  066%=      5-min Rain = 0
KSDS 260155Z 36008KT 16/09 A3003 RMK A01 T01570091  RH  067%=      5-min Rain = 0
KSDS 260200Z 36008KT 16/09 A3003 RMK A01 T01550091  RH  068%=      5-min Rain = 0
KSDS 260205Z 36007KT 15/09 A3003 RMK A01 T01520090  RH  069%=      5-min Rain = 0
KSDS 260210Z 35007KT 15/09 A3004 RMK A01 T01490089  RH  069%=      5-min Rain = 0
KSDS 260215Z 35007KT 15/09 A3004 RMK A01 T01460089  RH  071%=      5-min Rain = 0
KSDS 260220Z 35008KT 14/09 A3005 RMK A01 T01440089  RH  072%=      5-min Rain = 0
KSDS 260225Z 35007KT 14/09 A3005 RMK A01 T01440089  RH  072%=      5-min Rain = 0
KSDS 260230Z 35007KT 14/09 A3005 RMK A01 T01410088  RH  073%=      5-min Rain = 0
KSDS 260235Z 35007KT 14/09 A3005 RMK A01 T01380088  RH  074%=      5-min Rain = 0
KSDS 260240Z 35007KT 14/09 A3005 RMK A01 T01360088  RH  075%=      5-min Rain = 0
KSDS 260245Z 34006KT 13/09 A3005 RMK A01 T01340088  RH  076%=      5-min Rain = 0
KSDS 260250Z 35007KT 13/09 A3006 RMK A01 T01320088  RH  077%=      5-min Rain = 0
KSDS 260255Z 35006KT 13/09 A3006 RMK A01 T01310088  RH  077%=      5-min Rain = 0
KSDS 260300Z 35006KT 13/09 A3006 RMK A01 T01300088  RH  078%=      5-min Rain = 0
KSDS 260305Z 35006KT 13/09 A3006 RMK A01 T01290088  RH  078%=      5-min Rain = 0
KSDS 260310Z 34006KT 13/09 A3006 RMK A01 T01260087  RH  079%=      5-min Rain = 0
KSDS 260315Z 34006KT 12/09 A3006 RMK A01 T01240087  RH  080%=      5-min Rain = 0
KSDS 260320Z 34005KT 12/09 A3007 RMK A01 T01220086  RH  081%=      5-min Rain = 0
KSDS 260325Z 34006KT 12/09 A3007 RMK A01 T01200085  RH  082%=      5-min Rain = 0
KSDS 260330Z 34006KT 12/08 A3007 RMK A01 T01170084  RH  083%=      5-min Rain = 0
KSDS 260335Z 34005KT 12/08 A3007 RMK A01 T01150084  RH  084%=      5-min Rain = 0
KSDS 260340Z 34005KT 11/08 A3007 RMK A01 T01130083  RH  084%=      5-min Rain = 0
KSDS 260345Z 34005KT 11/08 A3007 RMK A01 T01110082  RH  085%=      5-min Rain = 0
KSDS 260350Z 34006KT 11/08 A3008 RMK A01 T01090081  RH  085%=      5-min Rain = 0
KSDS 260355Z 34004KT 11/08 A3007 RMK A01 T01080081  RH  086%=      5-min Rain = 0
KSDS 260400Z 34004KT 11/08 A3008 RMK A01 T01080082  RH  086%=      5-min Rain = 0
KSDS 260405Z 34003KT 11/08 A3008 RMK A01 T01080081  RH  086%=      5-min Rain = 0
KSDS 260410Z 33003KT 11/08 A3008 RMK A01 T01050078  RH  085%=      5-min Rain = 0
KSDS 260415Z 35003KT 10/08 A3008 RMK A01 T01030075  RH  086%=      5-min Rain = 0
KSDS 260420Z 34004KT 11/08 A3008 RMK A01 T01050080  RH  087%=      5-min Rain = 0
KSDS 260425Z 34004KT 11/08 A3008 RMK A01 T01060081  RH  087%=      5-min Rain = 0
KSDS 260430Z 33007KT 10/08 A3008 RMK A01 T01020077  RH  087%=      5-min Rain = 0
KSDS 260435Z 33007KT 10/08 A3008 RMK A01 T00990076  RH  088%=      5-min Rain = 0
KSDS 260440Z 33007KT 10/08 A3009 RMK A01 T00990077  RH  089%=      5-min Rain = 0
KSDS 260445Z 33007KT 10/08 A3009 RMK A01 T00990079  RH  089%=      5-min Rain = 0
KSDS 260450Z 33007KT 10/08 A3009 RMK A01 T01000080  RH  090%=      5-min Rain = 0
KSDS 260455Z 34007KT 10/08 A3009 RMK A01 T00990078  RH  089%=      5-min Rain = 0

Page generated in 0.0092 seconds.